sensor_id;sensor_type;location;lat;lon;timestamp;P1;durP1;ratioP1;P2;durP2;ratioP2
12721;SDS011;6425;50.316;8.114;2024-03-29T00:00:00;4.5;;;4.1;;
12721;SDS011;6425;50.316;8.114;2024-03-29T00:03:00;3.1;;;3;;
12721;SDS011;6425;50.316;8.114;2024-03-29T00:06:00;3.1;;;3;;
12721;SDS011;6425;50.316;8.114;2024-03-29T00:09:00;4.3;;;4.1;;
12721;SDS011;6425;50.316;8.114;2024-03-29T00:12:00;4.2;;;3.9;;
12721;SDS011;6425;50.316;8.114;2024-03-29T00:15:00;4.2;;;3.9;;
12721;SDS011;6425;50.316;8.114;2024-03-29T00:18:00;4.1;;;3.8;;
12721;SDS011;6425;50.316;8.114;2024-03-29T00:21:00;4.1;;;3.8;;
12721;SDS011;6425;50.316;8.114;2024-03-29T00:24:00;4.4;;;3.5;;
12721;SDS011;6425;50.316;8.114;2024-03-29T00:27:00;4.6;;;4.3;;
12721;SDS011;6425;50.316;8.114;2024-03-29T00:30:00;4.6;;;4.3;;
12721;SDS011;6425;50.316;8.114;2024-03-29T00:33:00;3.9;;;3.7;;
12721;SDS011;6425;50.316;8.114;2024-03-29T00:36:00;3.9;;;3.7;;
12721;SDS011;6425;50.316;8.114;2024-03-29T00:39:00;4.7;;;4.3;;
12721;SDS011;6425;50.316;8.114;2024-03-29T00:42:00;4.5;;;4.2;;
12721;SDS011;6425;50.316;8.114;2024-03-29T00:45:00;4.5;;;4.2;;
12721;SDS011;6425;50.316;8.114;2024-03-29T00:48:00;4.3;;;4;;
12721;SDS011;6425;50.316;8.114;2024-03-29T00:51:00;4.3;;;4;;
12721;SDS011;6425;50.316;8.114;2024-03-29T00:54:00;4.7;;;4.4;;
12721;SDS011;6425;50.316;8.114;2024-03-29T00:57:00;4.1;;;3.8;;
12721;SDS011;6425;50.316;8.114;2024-03-29T01:00:00;4.1;;;3.8;;
12721;SDS011;6425;50.316;8.114;2024-03-29T01:03:00;4.6;;;4.2;;
12721;SDS011;6425;50.316;8.114;2024-03-29T01:06:00;4.6;;;4.2;;
12721;SDS011;6425;50.316;8.114;2024-03-29T01:09:00;6.1;;;5.5;;
12721;SDS011;6425;50.316;8.114;2024-03-29T01:12:00;6.2;;;5.8;;
12721;SDS011;6425;50.316;8.114;2024-03-29T01:15:00;6.2;;;5.8;;
12721;SDS011;6425;50.316;8.114;2024-03-29T01:18:00;4.7;;;4.4;;
12721;SDS011;6425;50.316;8.114;2024-03-29T01:21:00;4.7;;;4.4;;
12721;SDS011;6425;50.316;8.114;2024-03-29T01:24:00;7;;;6.6;;
12721;SDS011;6425;50.316;8.114;2024-03-29T01:27:00;5.7;;;5.2;;
12721;SDS011;6425;50.316;8.114;2024-03-29T01:30:00;5.7;;;5.2;;
12721;SDS011;6425;50.316;8.114;2024-03-29T01:33:00;4.4;;;4.1;;
12721;SDS011;6425;50.316;8.114;2024-03-29T01:36:00;4.4;;;4.1;;
12721;SDS011;6425;50.316;8.114;2024-03-29T01:39:00;5.8;;;5.3;;
12721;SDS011;6425;50.316;8.114;2024-03-29T01:42:00;5.9;;;5.6;;
12721;SDS011;6425;50.316;8.114;2024-03-29T01:45:00;5.9;;;5.6;;
12721;SDS011;6425;50.316;8.114;2024-03-29T01:48:00;6.5;;;6;;
12721;SDS011;6425;50.316;8.114;2024-03-29T01:51:00;6.8;;;6.2;;
12721;SDS011;6425;50.316;8.114;2024-03-29T01:54:00;6.8;;;6.2;;
12721;SDS011;6425;50.316;8.114;2024-03-29T01:57:00;6.2;;;5.9;;
12721;SDS011;6425;50.316;8.114;2024-03-29T02:00:00;6.2;;;5.9;;
12721;SDS011;6425;50.316;8.114;2024-03-29T02:03:00;6.4;;;6;;
12721;SDS011;6425;50.316;8.114;2024-03-29T02:06:00;6.4;;;5.9;;
12721;SDS011;6425;50.316;8.114;2024-03-29T02:09:00;6.4;;;5.9;;
12721;SDS011;6425;50.316;8.114;2024-03-29T02:12:00;8.1;;;7.7;;
12721;SDS011;6425;50.316;8.114;2024-03-29T02:15:00;8.1;;;7.7;;
12721;SDS011;6425;50.316;8.114;2024-03-29T02:18:00;8;;;7.5;;
12721;SDS011;6425;50.316;8.114;2024-03-29T02:21:00;6.8;;;6.4;;
12721;SDS011;6425;50.316;8.114;2024-03-29T02:24:01;6.8;;;6.4;;
12721;SDS011;6425;50.316;8.114;2024-03-29T02:27:00;6.5;;;6;;
12721;SDS011;6425;50.316;8.114;2024-03-29T02:30:00;6.5;;;6;;
12721;SDS011;6425;50.316;8.114;2024-03-29T02:33:00;7.5;;;6.8;;
12721;SDS011;6425;50.316;8.114;2024-03-29T02:36:00;7.2;;;6.8;;
12721;SDS011;6425;50.316;8.114;2024-03-29T02:39:00;7.2;;;6.8;;
12721;SDS011;6425;50.316;8.114;2024-03-29T02:42:00;6.9;;;6.5;;
12721;SDS011;6425;50.316;8.114;2024-03-29T02:45:00;6.9;;;6.5;;
12721;SDS011;6425;50.316;8.114;2024-03-29T02:48:00;7.4;;;7;;
12721;SDS011;6425;50.316;8.114;2024-03-29T02:51:00;7.6;;;7;;
12721;SDS011;6425;50.316;8.114;2024-03-29T02:54:00;7.6;;;7;;
12721;SDS011;6425;50.316;8.114;2024-03-29T02:57:00;7;;;6.5;;
12721;SDS011;6425;50.316;8.114;2024-03-29T03:00:00;7;;;6.5;;
12721;SDS011;6425;50.316;8.114;2024-03-29T03:03:00;7.6;;;7.1;;
12721;SDS011;6425;50.316;8.114;2024-03-29T03:06:00;9.1;;;8.6;;
12721;SDS011;6425;50.316;8.114;2024-03-29T03:09:00;9.1;;;8.6;;
12721;SDS011;6425;50.316;8.114;2024-03-29T03:12:00;6.7;;;6.4;;
12721;SDS011;6425;50.316;8.114;2024-03-29T03:15:00;6.7;;;6.4;;
12721;SDS011;6425;50.316;8.114;2024-03-29T03:18:00;7.6;;;7.2;;
12721;SDS011;6425;50.316;8.114;2024-03-29T03:21:00;7;;;6.6;;
12721;SDS011;6425;50.316;8.114;2024-03-29T03:24:00;7;;;6.6;;
12721;SDS011;6425;50.316;8.114;2024-03-29T03:27:00;7.9;;;7.4;;
12721;SDS011;6425;50.316;8.114;2024-03-29T03:30:00;7.9;;;7.4;;
12721;SDS011;6425;50.316;8.114;2024-03-29T03:33:00;7.2;;;6.8;;
12721;SDS011;6425;50.316;8.114;2024-03-29T03:36:00;7.6;;;7.2;;
12721;SDS011;6425;50.316;8.114;2024-03-29T03:39:00;7.6;;;7.2;;
12721;SDS011;6425;50.316;8.114;2024-03-29T03:42:00;8.1;;;7.5;;
12721;SDS011;6425;50.316;8.114;2024-03-29T03:45:00;8.1;;;7.5;;
12721;SDS011;6425;50.316;8.114;2024-03-29T03:48:00;7.4;;;7;;
12721;SDS011;6425;50.316;8.114;2024-03-29T03:51:00;6.9;;;6.6;;
12721;SDS011;6425;50.316;8.114;2024-03-29T03:54:00;6.9;;;6.6;;
12721;SDS011;6425;50.316;8.114;2024-03-29T03:57:00;6.9;;;6.4;;
12721;SDS011;6425;50.316;8.114;2024-03-29T04:00:00;6.9;;;6.4;;
12721;SDS011;6425;50.316;8.114;2024-03-29T04:03:00;8.2;;;7.6;;
12721;SDS011;6425;50.316;8.114;2024-03-29T04:06:02;7.1;;;6.6;;
12721;SDS011;6425;50.316;8.114;2024-03-29T04:09:00;7.1;;;6.6;;
12721;SDS011;6425;50.316;8.114;2024-03-29T04:12:00;7.3;;;6.8;;
12721;SDS011;6425;50.316;8.114;2024-03-29T04:15:00;7.3;;;6.8;;
12721;SDS011;6425;50.316;8.114;2024-03-29T04:18:00;6.4;;;6.1;;
12721;SDS011;6425;50.316;8.114;2024-03-29T04:21:00;6.5;;;6.1;;
12721;SDS011;6425;50.316;8.114;2024-03-29T04:24:00;6.5;;;6.1;;
12721;SDS011;6425;50.316;8.114;2024-03-29T04:27:00;5.7;;;5.3;;
12721;SDS011;6425;50.316;8.114;2024-03-29T04:30:00;5.7;;;5.3;;
12721;SDS011;6425;50.316;8.114;2024-03-29T04:33:00;5.9;;;5.6;;
12721;SDS011;6425;50.316;8.114;2024-03-29T04:36:00;5.5;;;5.1;;
12721;SDS011;6425;50.316;8.114;2024-03-29T04:39:00;5.5;;;5.1;;
12721;SDS011;6425;50.316;8.114;2024-03-29T04:42:00;5.9;;;5.6;;
12721;SDS011;6425;50.316;8.114;2024-03-29T04:45:00;5.9;;;5.6;;
12721;SDS011;6425;50.316;8.114;2024-03-29T04:48:00;6.4;;;6.1;;
12721;SDS011;6425;50.316;8.114;2024-03-29T04:51:00;5.5;;;5.2;;
12721;SDS011;6425;50.316;8.114;2024-03-29T04:54:00;5.5;;;5.2;;
12721;SDS011;6425;50.316;8.114;2024-03-29T04:57:00;4.9;;;4.7;;
12721;SDS011;6425;50.316;8.114;2024-03-29T05:00:00;4.7;;;4.5;;
12721;SDS011;6425;50.316;8.114;2024-03-29T05:03:00;4.3;;;4.1;;
12721;SDS011;6425;50.316;8.114;2024-03-29T05:06:00;4.2;;;3.9;;
12721;SDS011;6425;50.316;8.114;2024-03-29T05:09:00;4.2;;;3.9;;
12721;SDS011;6425;50.316;8.114;2024-03-29T05:12:00;4.1;;;3.7;;
12721;SDS011;6425;50.316;8.114;2024-03-29T05:15:00;2.5;;;2.3;;
12721;SDS011;6425;50.316;8.114;2024-03-29T05:18:00;2.5;;;2.3;;
12721;SDS011;6425;50.316;8.114;2024-03-29T05:21:00;2.8;;;2.3;;
12721;SDS011;6425;50.316;8.114;2024-03-29T05:24:00;2.8;;;2.3;;
12721;SDS011;6425;50.316;8.114;2024-03-29T05:27:01;2.8;;;1.7;;
12721;SDS011;6425;50.316;8.114;2024-03-29T05:30:00;1.6;;;1.5;;
12721;SDS011;6425;50.316;8.114;2024-03-29T05:33:00;1.6;;;1.5;;
12721;SDS011;6425;50.316;8.114;2024-03-29T05:36:00;1.3;;;1.2;;
12721;SDS011;6425;50.316;8.114;2024-03-29T05:39:00;1.3;;;1.2;;
12721;SDS011;6425;50.316;8.114;2024-03-29T05:42:00;1.2;;;0.9;;
12721;SDS011;6425;50.316;8.114;2024-03-29T05:45:00;2.1;;;1.2;;
12721;SDS011;6425;50.316;8.114;2024-03-29T05:48:00;2.1;;;1.2;;
12721;SDS011;6425;50.316;8.114;2024-03-29T05:51:00;1.1;;;0.8;;
12721;SDS011;6425;50.316;8.114;2024-03-29T05:54:00;1.1;;;0.8;;
12721;SDS011;6425;50.316;8.114;2024-03-29T05:57:00;1.3;;;0.9;;
12721;SDS011;6425;50.316;8.114;2024-03-29T06:00:00;1.9;;;0.7;;
12721;SDS011;6425;50.316;8.114;2024-03-29T06:03:00;1.9;;;0.7;;
12721;SDS011;6425;50.316;8.114;2024-03-29T06:06:00;2.7;;;1;;
12721;SDS011;6425;50.316;8.114;2024-03-29T06:09:00;2.7;;;1;;
12721;SDS011;6425;50.316;8.114;2024-03-29T06:12:00;1.1;;;0.6;;
12721;SDS011;6425;50.316;8.114;2024-03-29T06:15:00;1.2;;;0.8;;
12721;SDS011;6425;50.316;8.114;2024-03-29T06:18:00;1.2;;;0.8;;
12721;SDS011;6425;50.316;8.114;2024-03-29T06:21:00;2;;;0.9;;
12721;SDS011;6425;50.316;8.114;2024-03-29T06:24:00;2;;;0.9;;
12721;SDS011;6425;50.316;8.114;2024-03-29T06:27:00;2.4;;;0.7;;
12721;SDS011;6425;50.316;8.114;2024-03-29T06:30:00;2.3;;;0.8;;
12721;SDS011;6425;50.316;8.114;2024-03-29T06:33:00;2.3;;;0.8;;
12721;SDS011;6425;50.316;8.114;2024-03-29T06:36:00;3.7;;;1;;
12721;SDS011;6425;50.316;8.114;2024-03-29T06:39:00;3.7;;;1;;
12721;SDS011;6425;50.316;8.114;2024-03-29T06:42:00;3;;;0.7;;
12721;SDS011;6425;50.316;8.114;2024-03-29T06:45:00;1.9;;;0.9;;
12721;SDS011;6425;50.316;8.114;2024-03-29T06:48:00;1.9;;;0.9;;
12721;SDS011;6425;50.316;8.114;2024-03-29T06:51:00;2.2;;;1.4;;
12721;SDS011;6425;50.316;8.114;2024-03-29T06:54:00;2.2;;;1.4;;
12721;SDS011;6425;50.316;8.114;2024-03-29T06:57:00;2.5;;;0.9;;
12721;SDS011;6425;50.316;8.114;2024-03-29T07:00:00;1.3;;;0.7;;
12721;SDS011;6425;50.316;8.114;2024-03-29T07:03:00;1.3;;;0.7;;
12721;SDS011;6425;50.316;8.114;2024-03-29T07:06:00;1.8;;;0.7;;
12721;SDS011;6425;50.316;8.114;2024-03-29T07:09:00;1.8;;;0.7;;
12721;SDS011;6425;50.316;8.114;2024-03-29T07:12:00;0.7;;;0.6;;
12721;SDS011;6425;50.316;8.114;2024-03-29T07:15:00;1;;;0.5;;
12721;SDS011;6425;50.316;8.114;2024-03-29T07:18:00;1;;;0.5;;
12721;SDS011;6425;50.316;8.114;2024-03-29T07:21:00;4.1;;;0.7;;
12721;SDS011;6425;50.316;8.114;2024-03-29T07:24:00;4.1;;;0.7;;
12721;SDS011;6425;50.316;8.114;2024-03-29T07:27:00;2.3;;;0.5;;
12721;SDS011;6425;50.316;8.114;2024-03-29T07:30:00;2.7;;;0.7;;
12721;SDS011;6425;50.316;8.114;2024-03-29T07:33:00;2.7;;;0.7;;
12721;SDS011;6425;50.316;8.114;2024-03-29T07:36:00;2.9;;;0.8;;
12721;SDS011;6425;50.316;8.114;2024-03-29T07:39:00;2.9;;;0.8;;
12721;SDS011;6425;50.316;8.114;2024-03-29T07:42:00;2.6;;;0.7;;
12721;SDS011;6425;50.316;8.114;2024-03-29T07:45:00;1.4;;;0.6;;
12721;SDS011;6425;50.316;8.114;2024-03-29T07:48:00;1.4;;;0.6;;
12721;SDS011;6425;50.316;8.114;2024-03-29T07:51:00;1.3;;;0.6;;
12721;SDS011;6425;50.316;8.114;2024-03-29T07:54:00;1.3;;;0.6;;
12721;SDS011;6425;50.316;8.114;2024-03-29T07:57:00;1.9;;;0.6;;
12721;SDS011;6425;50.316;8.114;2024-03-29T08:00:00;2.8;;;0.7;;
12721;SDS011;6425;50.316;8.114;2024-03-29T08:03:00;2.8;;;0.7;;
12721;SDS011;6425;50.316;8.114;2024-03-29T08:06:00;1;;;0.6;;
12721;SDS011;6425;50.316;8.114;2024-03-29T08:09:00;1;;;0.6;;
12721;SDS011;6425;50.316;8.114;2024-03-29T08:12:00;2.2;;;0.7;;
12721;SDS011;6425;50.316;8.114;2024-03-29T08:15:00;2.1;;;0.5;;
12721;SDS011;6425;50.316;8.114;2024-03-29T08:18:00;2.1;;;0.5;;
12721;SDS011;6425;50.316;8.114;2024-03-29T08:21:00;2.8;;;0.7;;
12721;SDS011;6425;50.316;8.114;2024-03-29T08:24:00;1.3;;;0.7;;
12721;SDS011;6425;50.316;8.114;2024-03-29T08:27:00;0.9;;;0.7;;
12721;SDS011;6425;50.316;8.114;2024-03-29T08:30:00;1.6;;;0.7;;
12721;SDS011;6425;50.316;8.114;2024-03-29T08:33:00;1.6;;;0.7;;
12721;SDS011;6425;50.316;8.114;2024-03-29T08:36:00;2.3;;;1.6;;
12721;SDS011;6425;50.316;8.114;2024-03-29T08:39:00;0.9;;;0.9;;
12721;SDS011;6425;50.316;8.114;2024-03-29T08:42:00;0.9;;;0.9;;
12721;SDS011;6425;50.316;8.114;2024-03-29T08:45:00;1.1;;;0.9;;
12721;SDS011;6425;50.316;8.114;2024-03-29T08:48:00;1.1;;;0.9;;
12721;SDS011;6425;50.316;8.114;2024-03-29T08:51:00;1.1;;;0.8;;
12721;SDS011;6425;50.316;8.114;2024-03-29T08:54:00;3.2;;;1.7;;
12721;SDS011;6425;50.316;8.114;2024-03-29T08:57:00;3.2;;;1.7;;
12721;SDS011;6425;50.316;8.114;2024-03-29T09:00:00;2;;;1.3;;
12721;SDS011;6425;50.316;8.114;2024-03-29T09:03:00;2;;;1.3;;
12721;SDS011;6425;50.316;8.114;2024-03-29T09:06:00;1.6;;;1.2;;
12721;SDS011;6425;50.316;8.114;2024-03-29T09:09:00;1.6;;;0.7;;
12721;SDS011;6425;50.316;8.114;2024-03-29T09:12:00;1.6;;;0.7;;
12721;SDS011;6425;50.316;8.114;2024-03-29T09:15:00;0.8;;;0.6;;
12721;SDS011;6425;50.316;8.114;2024-03-29T09:18:00;0.8;;;0.6;;
12721;SDS011;6425;50.316;8.114;2024-03-29T09:21:00;0.9;;;0.6;;
12721;SDS011;6425;50.316;8.114;2024-03-29T09:24:00;1.1;;;0.8;;
12721;SDS011;6425;50.316;8.114;2024-03-29T09:27:00;1.1;;;0.8;;
12721;SDS011;6425;50.316;8.114;2024-03-29T09:30:00;1;;;0.7;;
12721;SDS011;6425;50.316;8.114;2024-03-29T09:33:00;1;;;0.7;;
12721;SDS011;6425;50.316;8.114;2024-03-29T09:36:00;1.8;;;1;;
12721;SDS011;6425;50.316;8.114;2024-03-29T09:39:00;1.9;;;1.2;;
12721;SDS011;6425;50.316;8.114;2024-03-29T09:42:00;1.9;;;1.2;;
12721;SDS011;6425;50.316;8.114;2024-03-29T09:45:01;1.8;;;1.1;;
12721;SDS011;6425;50.316;8.114;2024-03-29T09:48:00;1.8;;;1.1;;
12721;SDS011;6425;50.316;8.114;2024-03-29T09:51:00;1.3;;;1.2;;
12721;SDS011;6425;50.316;8.114;2024-03-29T09:54:00;1.7;;;1.6;;
12721;SDS011;6425;50.316;8.114;2024-03-29T09:57:00;1.7;;;1.6;;
12721;SDS011;6425;50.316;8.114;2024-03-29T10:00:00;1.4;;;1.3;;
12721;SDS011;6425;50.316;8.114;2024-03-29T10:03:00;1.4;;;1.3;;
12721;SDS011;6425;50.316;8.114;2024-03-29T10:06:00;2.8;;;2.6;;
12721;SDS011;6425;50.316;8.114;2024-03-29T10:09:00;2.5;;;2.3;;
12721;SDS011;6425;50.316;8.114;2024-03-29T10:12:00;2.5;;;2.3;;
12721;SDS011;6425;50.316;8.114;2024-03-29T10:15:00;1.8;;;1.7;;
12721;SDS011;6425;50.316;8.114;2024-03-29T10:18:00;1.8;;;1.7;;
12721;SDS011;6425;50.316;8.114;2024-03-29T10:21:00;2.6;;;2.1;;
12721;SDS011;6425;50.316;8.114;2024-03-29T10:24:00;2.1;;;1.9;;
12721;SDS011;6425;50.316;8.114;2024-03-29T10:27:00;2.1;;;1.9;;
12721;SDS011;6425;50.316;8.114;2024-03-29T10:30:00;1.7;;;1.6;;
12721;SDS011;6425;50.316;8.114;2024-03-29T10:33:00;1.7;;;1.6;;
12721;SDS011;6425;50.316;8.114;2024-03-29T10:36:00;1.7;;;1.6;;
12721;SDS011;6425;50.316;8.114;2024-03-29T10:39:00;1.5;;;1.1;;
12721;SDS011;6425;50.316;8.114;2024-03-29T10:42:00;1.5;;;1.1;;
12721;SDS011;6425;50.316;8.114;2024-03-29T10:45:00;2.7;;;0.9;;
12721;SDS011;6425;50.316;8.114;2024-03-29T10:48:00;2.7;;;0.9;;
12721;SDS011;6425;50.316;8.114;2024-03-29T10:51:00;2.1;;;0.9;;
12721;SDS011;6425;50.316;8.114;2024-03-29T10:54:00;2.2;;;0.9;;
12721;SDS011;6425;50.316;8.114;2024-03-29T10:57:06;2.2;;;0.9;;
12721;SDS011;6425;50.316;8.114;2024-03-29T11:00:02;2.6;;;0.7;;
12721;SDS011;6425;50.316;8.114;2024-03-29T11:03:02;2.6;;;0.7;;
12721;SDS011;6425;50.316;8.114;2024-03-29T11:06:01;1.9;;;1;;
12721;SDS011;6425;50.316;8.114;2024-03-29T11:09:00;2.7;;;1.1;;
12721;SDS011;6425;50.316;8.114;2024-03-29T11:12:00;2.7;;;1.1;;
12721;SDS011;6425;50.316;8.114;2024-03-29T11:15:01;1.8;;;1.2;;
12721;SDS011;6425;50.316;8.114;2024-03-29T11:18:00;1.8;;;1.2;;
12721;SDS011;6425;50.316;8.114;2024-03-29T11:21:00;2.1;;;1.5;;
12721;SDS011;6425;50.316;8.114;2024-03-29T11:24:00;1.8;;;0.8;;
12721;SDS011;6425;50.316;8.114;2024-03-29T11:27:06;1.8;;;0.8;;
12721;SDS011;6425;50.316;8.114;2024-03-29T11:30:01;2;;;1.1;;
12721;SDS011;6425;50.316;8.114;2024-03-29T11:33:00;2;;;1.1;;
12721;SDS011;6425;50.316;8.114;2024-03-29T11:36:03;2.7;;;1.1;;
12721;SDS011;6425;50.316;8.114;2024-03-29T11:39:00;2;;;1.1;;
12721;SDS011;6425;50.316;8.114;2024-03-29T11:42:00;2;;;1.1;;
12721;SDS011;6425;50.316;8.114;2024-03-29T11:45:00;3.5;;;1.5;;
12721;SDS011;6425;50.316;8.114;2024-03-29T11:48:00;3.5;;;1.5;;
12721;SDS011;6425;50.316;8.114;2024-03-29T11:51:00;2.8;;;1.2;;
12721;SDS011;6425;50.316;8.114;2024-03-29T11:54:00;2.8;;;1.9;;
12721;SDS011;6425;50.316;8.114;2024-03-29T11:57:00;2.8;;;1.9;;
12721;SDS011;6425;50.316;8.114;2024-03-29T12:00:00;3.8;;;2.2;;
12721;SDS011;6425;50.316;8.114;2024-03-29T12:03:00;4.9;;;2.9;;
12721;SDS011;6425;50.316;8.114;2024-03-29T12:06:00;4.9;;;2.9;;
12721;SDS011;6425;50.316;8.114;2024-03-29T12:09:00;3.3;;;2.9;;
12721;SDS011;6425;50.316;8.114;2024-03-29T12:12:00;3.3;;;2.9;;
12721;SDS011;6425;50.316;8.114;2024-03-29T12:15:00;2.6;;;2.3;;
12721;SDS011;6425;50.316;8.114;2024-03-29T12:18:00;2.9;;;2.5;;
12721;SDS011;6425;50.316;8.114;2024-03-29T12:21:00;2.9;;;2.5;;
12721;SDS011;6425;50.316;8.114;2024-03-29T12:24:00;3.2;;;2.9;;
12721;SDS011;6425;50.316;8.114;2024-03-29T12:27:00;3.2;;;2.9;;
12721;SDS011;6425;50.316;8.114;2024-03-29T12:30:00;2.4;;;2.2;;
12721;SDS011;6425;50.316;8.114;2024-03-29T12:33:00;3.8;;;2.2;;
12721;SDS011;6425;50.316;8.114;2024-03-29T12:36:00;3.8;;;2.2;;
12721;SDS011;6425;50.316;8.114;2024-03-29T12:39:00;3.9;;;2;;
12721;SDS011;6425;50.316;8.114;2024-03-29T12:42:00;3.9;;;2;;
12721;SDS011;6425;50.316;8.114;2024-03-29T12:45:00;2.6;;;1.8;;
12721;SDS011;6425;50.316;8.114;2024-03-29T12:48:00;3.6;;;1.6;;
12721;SDS011;6425;50.316;8.114;2024-03-29T12:51:00;3.6;;;1.6;;
12721;SDS011;6425;50.316;8.114;2024-03-29T12:54:00;1.9;;;1.6;;
12721;SDS011;6425;50.316;8.114;2024-03-29T12:57:00;1.9;;;1.6;;
12721;SDS011;6425;50.316;8.114;2024-03-29T13:00:00;2.5;;;1.6;;
12721;SDS011;6425;50.316;8.114;2024-03-29T13:03:00;3.1;;;1.3;;
12721;SDS011;6425;50.316;8.114;2024-03-29T13:06:00;3.1;;;1.3;;
12721;SDS011;6425;50.316;8.114;2024-03-29T13:09:00;2.6;;;1;;
12721;SDS011;6425;50.316;8.114;2024-03-29T13:12:00;2.6;;;1;;
12721;SDS011;6425;50.316;8.114;2024-03-29T13:15:01;1.4;;;1.1;;
12721;SDS011;6425;50.316;8.114;2024-03-29T13:18:00;1.8;;;0.9;;
12721;SDS011;6425;50.316;8.114;2024-03-29T13:21:00;1.8;;;0.9;;
12721;SDS011;6425;50.316;8.114;2024-03-29T13:24:00;1;;;0.7;;
12721;SDS011;6425;50.316;8.114;2024-03-29T13:27:00;1;;;0.7;;
12721;SDS011;6425;50.316;8.114;2024-03-29T13:30:00;1;;;0.6;;
12721;SDS011;6425;50.316;8.114;2024-03-29T13:33:00;2.6;;;0.6;;
12721;SDS011;6425;50.316;8.114;2024-03-29T13:36:00;2.6;;;0.6;;
12721;SDS011;6425;50.316;8.114;2024-03-29T13:39:00;2;;;0.6;;
12721;SDS011;6425;50.316;8.114;2024-03-29T13:42:00;2;;;0.6;;
12721;SDS011;6425;50.316;8.114;2024-03-29T13:45:00;1.3;;;0.6;;
12721;SDS011;6425;50.316;8.114;2024-03-29T13:48:00;1;;;0.6;;
12721;SDS011;6425;50.316;8.114;2024-03-29T13:51:00;1;;;0.6;;
12721;SDS011;6425;50.316;8.114;2024-03-29T13:54:00;1.7;;;0.5;;
12721;SDS011;6425;50.316;8.114;2024-03-29T13:57:00;1.7;;;0.5;;
12721;SDS011;6425;50.316;8.114;2024-03-29T14:00:00;1.1;;;0.5;;
12721;SDS011;6425;50.316;8.114;2024-03-29T14:03:00;0.9;;;0.5;;
12721;SDS011;6425;50.316;8.114;2024-03-29T14:06:00;0.9;;;0.5;;
12721;SDS011;6425;50.316;8.114;2024-03-29T14:09:00;0.8;;;0.5;;
12721;SDS011;6425;50.316;8.114;2024-03-29T14:12:00;0.8;;;0.5;;
12721;SDS011;6425;50.316;8.114;2024-03-29T14:15:00;1.3;;;0.5;;
12721;SDS011;6425;50.316;8.114;2024-03-29T14:18:00;2.8;;;0.5;;
12721;SDS011;6425;50.316;8.114;2024-03-29T14:21:00;2.8;;;0.5;;
12721;SDS011;6425;50.316;8.114;2024-03-29T14:24:00;0.7;;;0.4;;
12721;SDS011;6425;50.316;8.114;2024-03-29T14:27:00;0.7;;;0.4;;
12721;SDS011;6425;50.316;8.114;2024-03-29T14:30:00;0.9;;;0.5;;
12721;SDS011;6425;50.316;8.114;2024-03-29T14:33:00;0.9;;;0.6;;
12721;SDS011;6425;50.316;8.114;2024-03-29T14:36:00;0.9;;;0.6;;
12721;SDS011;6425;50.316;8.114;2024-03-29T14:39:00;1.5;;;0.6;;
12721;SDS011;6425;50.316;8.114;2024-03-29T14:42:00;1.5;;;0.6;;
12721;SDS011;6425;50.316;8.114;2024-03-29T14:45:00;0.8;;;0.5;;
12721;SDS011;6425;50.316;8.114;2024-03-29T14:48:00;1.7;;;0.8;;
12721;SDS011;6425;50.316;8.114;2024-03-29T14:51:00;1.7;;;0.8;;
12721;SDS011;6425;50.316;8.114;2024-03-29T14:54:00;1.7;;;0.8;;
12721;SDS011;6425;50.316;8.114;2024-03-29T14:57:00;0.9;;;0.7;;
12721;SDS011;6425;50.316;8.114;2024-03-29T15:00:00;1.5;;;0.8;;
12721;SDS011;6425;50.316;8.114;2024-03-29T15:03:00;1.5;;;1;;
12721;SDS011;6425;50.316;8.114;2024-03-29T15:06:00;1.5;;;1;;
12721;SDS011;6425;50.316;8.114;2024-03-29T15:09:00;1.5;;;1;;
12721;SDS011;6425;50.316;8.114;2024-03-29T15:12:00;1.8;;;1;;
12721;SDS011;6425;50.316;8.114;2024-03-29T15:15:00;1.5;;;0.8;;
12721;SDS011;6425;50.316;8.114;2024-03-29T15:18:00;2.1;;;1.1;;
12721;SDS011;6425;50.316;8.114;2024-03-29T15:21:00;2.1;;;1.1;;
12721;SDS011;6425;50.316;8.114;2024-03-29T15:24:00;2.2;;;1;;
12721;SDS011;6425;50.316;8.114;2024-03-29T15:27:00;1.6;;;1;;
12721;SDS011;6425;50.316;8.114;2024-03-29T15:30:00;1.4;;;1;;
12721;SDS011;6425;50.316;8.114;2024-03-29T15:33:00;2.2;;;1.1;;
12721;SDS011;6425;50.316;8.114;2024-03-29T15:36:00;2.2;;;1.1;;
12721;SDS011;6425;50.316;8.114;2024-03-29T15:39:00;1.3;;;0.9;;
12721;SDS011;6425;50.316;8.114;2024-03-29T15:42:00;1.6;;;0.8;;
12721;SDS011;6425;50.316;8.114;2024-03-29T15:45:00;1.6;;;0.8;;
12721;SDS011;6425;50.316;8.114;2024-03-29T15:48:00;1.6;;;0.8;;
12721;SDS011;6425;50.316;8.114;2024-03-29T15:51:00;1.6;;;0.8;;
12721;SDS011;6425;50.316;8.114;2024-03-29T15:54:00;1.6;;;0.9;;
12721;SDS011;6425;50.316;8.114;2024-03-29T15:57:00;1.4;;;0.9;;
12721;SDS011;6425;50.316;8.114;2024-03-29T16:00:00;1.4;;;0.9;;
12721;SDS011;6425;50.316;8.114;2024-03-29T16:03:00;1;;;0.9;;
12721;SDS011;6425;50.316;8.114;2024-03-29T16:06:00;1;;;0.9;;
12721;SDS011;6425;50.316;8.114;2024-03-29T16:09:00;1.1;;;0.8;;
12721;SDS011;6425;50.316;8.114;2024-03-29T16:12:00;1;;;0.8;;
12721;SDS011;6425;50.316;8.114;2024-03-29T16:15:00;1;;;0.8;;
12721;SDS011;6425;50.316;8.114;2024-03-29T16:18:00;1.5;;;1.1;;
12721;SDS011;6425;50.316;8.114;2024-03-29T16:21:00;1.5;;;1.1;;
12721;SDS011;6425;50.316;8.114;2024-03-29T16:24:00;1.3;;;1.1;;
12721;SDS011;6425;50.316;8.114;2024-03-29T16:27:00;2.6;;;1.1;;
12721;SDS011;6425;50.316;8.114;2024-03-29T16:30:00;2.6;;;1.1;;
12721;SDS011;6425;50.316;8.114;2024-03-29T16:33:00;1.6;;;1.2;;
12721;SDS011;6425;50.316;8.114;2024-03-29T16:36:00;1.6;;;1.2;;
12721;SDS011;6425;50.316;8.114;2024-03-29T16:39:00;1.5;;;1.2;;
12721;SDS011;6425;50.316;8.114;2024-03-29T16:42:00;2.9;;;1.2;;
12721;SDS011;6425;50.316;8.114;2024-03-29T16:45:00;2.9;;;1.2;;
12721;SDS011;6425;50.316;8.114;2024-03-29T16:48:00;2.6;;;1.4;;
12721;SDS011;6425;50.316;8.114;2024-03-29T16:51:00;2.6;;;1.4;;
12721;SDS011;6425;50.316;8.114;2024-03-29T16:54:00;1.8;;;1.4;;
12721;SDS011;6425;50.316;8.114;2024-03-29T16:57:00;3.6;;;1.7;;
12721;SDS011;6425;50.316;8.114;2024-03-29T17:00:00;3.6;;;1.7;;
12721;SDS011;6425;50.316;8.114;2024-03-29T17:03:00;1.7;;;1.5;;
12721;SDS011;6425;50.316;8.114;2024-03-29T17:06:00;1.7;;;1.5;;
12721;SDS011;6425;50.316;8.114;2024-03-29T17:09:00;9.7;;;7.2;;
12721;SDS011;6425;50.316;8.114;2024-03-29T17:12:00;8.6;;;6.3;;
12721;SDS011;6425;50.316;8.114;2024-03-29T17:15:00;8.6;;;6.3;;
12721;SDS011;6425;50.316;8.114;2024-03-29T17:18:00;2.9;;;2;;
12721;SDS011;6425;50.316;8.114;2024-03-29T17:21:00;2.9;;;2;;
12721;SDS011;6425;50.316;8.114;2024-03-29T17:24:00;3.1;;;2;;
12721;SDS011;6425;50.316;8.114;2024-03-29T17:27:00;3.3;;;2.5;;
12721;SDS011;6425;50.316;8.114;2024-03-29T17:30:00;3.3;;;2.5;;
12721;SDS011;6425;50.316;8.114;2024-03-29T17:33:00;3;;;2.6;;
12721;SDS011;6425;50.316;8.114;2024-03-29T17:36:00;3;;;2.6;;
12721;SDS011;6425;50.316;8.114;2024-03-29T17:39:00;7.3;;;6.6;;
12721;SDS011;6425;50.316;8.114;2024-03-29T17:42:00;11.6;;;10.1;;
12721;SDS011;6425;50.316;8.114;2024-03-29T17:45:00;11.6;;;10.1;;
12721;SDS011;6425;50.316;8.114;2024-03-29T17:48:00;7.3;;;6.6;;
12721;SDS011;6425;50.316;8.114;2024-03-29T17:51:00;7.3;;;6.6;;
12721;SDS011;6425;50.316;8.114;2024-03-29T17:54:00;8.5;;;5.4;;
12721;SDS011;6425;50.316;8.114;2024-03-29T17:57:00;8;;;6.5;;
12721;SDS011;6425;50.316;8.114;2024-03-29T18:00:00;8;;;6.5;;
12721;SDS011;6425;50.316;8.114;2024-03-29T18:03:00;11.5;;;8.6;;
12721;SDS011;6425;50.316;8.114;2024-03-29T18:06:00;11.5;;;8.6;;
12721;SDS011;6425;50.316;8.114;2024-03-29T18:09:00;13;;;11.7;;
12721;SDS011;6425;50.316;8.114;2024-03-29T18:12:00;14;;;10.9;;
12721;SDS011;6425;50.316;8.114;2024-03-29T18:15:00;14;;;10.9;;
12721;SDS011;6425;50.316;8.114;2024-03-29T18:18:00;9.4;;;7.5;;
12721;SDS011;6425;50.316;8.114;2024-03-29T18:21:00;9.4;;;7.5;;
12721;SDS011;6425;50.316;8.114;2024-03-29T18:24:00;13.5;;;9.8;;
12721;SDS011;6425;50.316;8.114;2024-03-29T18:27:00;13.1;;;11.5;;
12721;SDS011;6425;50.316;8.114;2024-03-29T18:30:00;13.1;;;11.5;;
12721;SDS011;6425;50.316;8.114;2024-03-29T18:33:00;15;;;12.4;;
12721;SDS011;6425;50.316;8.114;2024-03-29T18:36:00;15;;;12.4;;
12721;SDS011;6425;50.316;8.114;2024-03-29T18:39:00;10.2;;;8.1;;
12721;SDS011;6425;50.316;8.114;2024-03-29T18:42:00;13;;;10.2;;
12721;SDS011;6425;50.316;8.114;2024-03-29T18:45:00;13;;;10.2;;
12721;SDS011;6425;50.316;8.114;2024-03-29T18:48:00;9.8;;;6.8;;
12721;SDS011;6425;50.316;8.114;2024-03-29T18:51:00;9.8;;;6.8;;
12721;SDS011;6425;50.316;8.114;2024-03-29T18:54:00;12.4;;;8.2;;
12721;SDS011;6425;50.316;8.114;2024-03-29T18:57:00;11;;;7.6;;
12721;SDS011;6425;50.316;8.114;2024-03-29T19:00:00;11;;;7.6;;